createdAt,value
2023-02-03T00:03:56.380Z,6192.00
2023-02-03T00:09:03.566Z,6192.00
2023-02-03T00:14:10.774Z,5976.00
2023-02-03T00:19:17.987Z,5868.00
2023-02-03T00:24:25.123Z,-972.00
2023-02-03T00:29:32.332Z,-1008.00
2023-02-03T00:34:39.497Z,-972.00
2023-02-03T00:39:46.688Z,-972.00
2023-02-03T00:44:53.876Z,-1008.00
2023-02-03T00:50:01.112Z,-972.00
2023-02-03T00:55:08.250Z,-972.00
2023-02-03T01:00:15.454Z,-972.00
2023-02-03T01:05:22.593Z,-972.00
2023-02-03T01:10:29.777Z,-972.00
2023-02-03T01:15:36.987Z,-972.00
2023-02-03T01:20:44.154Z,-1008.00
2023-02-03T01:25:51.336Z,-1008.00
2023-02-03T01:30:58.769Z,-1008.00
2023-02-03T01:36:05.712Z,-972.00
2023-02-03T01:41:12.887Z,-972.00
2023-02-03T01:46:20.196Z,-972.00
2023-02-03T01:51:27.275Z,-972.00
2023-02-03T01:56:34.446Z,-972.00
2023-02-03T02:01:41.704Z,-972.00
2023-02-03T02:06:48.805Z,-972.00
2023-02-03T02:11:55.963Z,-972.00
2023-02-03T02:17:03.311Z,-1008.00
2023-02-03T02:22:10.504Z,-972.00
2023-02-03T02:27:17.654Z,-1008.00
2023-02-03T02:32:24.871Z,-972.00
2023-02-03T02:37:32.012Z,-1008.00
2023-02-03T02:42:39.212Z,-972.00
2023-02-03T02:47:46.426Z,-1008.00
2023-02-03T02:52:54.236Z,-972.00
2023-02-03T02:58:01.364Z,-972.00
2023-02-03T03:03:08.629Z,-1008.00
2023-02-03T03:08:15.778Z,-1008.00
2023-02-03T03:13:22.953Z,-972.00
2023-02-03T03:18:30.142Z,-972.00
2023-02-03T03:23:37.297Z,-972.00
2023-02-03T03:28:44.468Z,-972.00
2023-02-03T03:33:51.738Z,-972.00
2023-02-03T03:38:58.936Z,-972.00
2023-02-03T03:44:06.120Z,-972.00
2023-02-03T03:49:13.379Z,-972.00
2023-02-03T03:54:20.530Z,-972.00
2023-02-03T03:59:27.697Z,-972.00
2023-02-03T04:04:34.902Z,-972.00
2023-02-03T04:09:42.048Z,-972.00
2023-02-03T04:14:49.235Z,-972.00
2023-02-03T04:19:56.451Z,-972.00
2023-02-03T04:25:03.619Z,-972.00
2023-02-03T04:30:10.783Z,-972.00
2023-02-03T04:35:17.992Z,-972.00
2023-02-03T04:40:25.405Z,-972.00
2023-02-03T04:45:32.358Z,-972.00
2023-02-03T04:50:39.562Z,-972.00
2023-02-03T04:55:46.731Z,-972.00
2023-02-03T05:00:54.011Z,-972.00
2023-02-03T05:06:01.217Z,-972.00
2023-02-03T05:11:08.390Z,-972.00
2023-02-03T05:16:15.638Z,-972.00
2023-02-03T05:21:22.762Z,-972.00
2023-02-03T05:26:29.897Z,-972.00
2023-02-03T05:31:37.081Z,-972.00
2023-02-03T05:36:44.326Z,-972.00
2023-02-03T05:41:51.469Z,-972.00
2023-02-03T05:46:58.760Z,-972.00
2023-02-03T05:52:05.974Z,-972.00
2023-02-03T05:57:13.120Z,-972.00
2023-02-03T06:02:20.306Z,-972.00
2023-02-03T06:07:27.506Z,-972.00
2023-02-03T06:12:34.611Z,-972.00
2023-02-03T06:17:41.896Z,-972.00
2023-02-03T06:22:49.096Z,-972.00
2023-02-03T06:27:56.262Z,-972.00
2023-02-03T06:33:03.418Z,-972.00
2023-02-03T06:38:10.619Z,-972.00
2023-02-03T06:43:17.786Z,-972.00
2023-02-03T06:48:24.910Z,-972.00
2023-02-03T06:53:32.074Z,-972.00
2023-02-03T06:58:39.247Z,-972.00
2023-02-03T07:03:46.454Z,-972.00
2023-02-03T07:08:53.673Z,-972.00
2023-02-03T07:14:00.845Z,-972.00
2023-02-03T07:19:07.973Z,-936.00
2023-02-03T07:24:15.153Z,-972.00
2023-02-03T07:29:22.352Z,-972.00
2023-02-03T07:34:29.575Z,7308.00
2023-02-03T07:39:36.803Z,8172.00
2023-02-03T07:44:43.892Z,7848.00
2023-02-03T07:49:51.083Z,7740.00
2023-02-03T07:54:58.322Z,8028.00
2023-02-03T08:00:05.574Z,9432.00
2023-02-03T08:05:12.870Z,7956.00
2023-02-03T08:10:19.943Z,7704.00
2023-02-03T08:15:27.125Z,9612.00
2023-02-03T08:20:34.295Z,10584.00
2023-02-03T08:25:41.509Z,11196.00
2023-02-03T08:30:48.708Z,10692.00
2023-02-03T08:35:55.992Z,12600.00
2023-02-03T08:41:03.176Z,12240.00
2023-02-03T08:46:10.585Z,12816.00
2023-02-03T08:51:17.925Z,11412.00
2023-02-03T08:56:25.292Z,12096.00
2023-02-03T09:01:32.563Z,12384.00
2023-02-03T09:06:39.783Z,10656.00
2023-02-03T09:11:47.025Z,10764.00
2023-02-03T09:16:54.264Z,11952.00
2023-02-03T09:22:01.383Z,13140.00
2023-02-03T09:27:08.586Z,12384.00
2023-02-03T09:32:16.006Z,12168.00
2023-02-03T09:37:23.114Z,11376.00
2023-02-03T09:42:30.315Z,11052.00
2023-02-03T09:47:37.475Z,10872.00
2023-02-03T09:52:44.665Z,10872.00
2023-02-03T09:57:51.888Z,10872.00
2023-02-03T10:02:59.054Z,11124.00
2023-02-03T10:08:06.209Z,12564.00
2023-02-03T10:13:13.452Z,12708.00
2023-02-03T10:18:20.690Z,11484.00
2023-02-03T10:23:27.903Z,11700.00
2023-02-03T10:28:35.195Z,12168.00
2023-02-03T10:33:42.324Z,14076.00
2023-02-03T10:38:49.543Z,16272.00
2023-02-03T10:43:57.678Z,15228.00
2023-02-03T10:49:04.007Z,16560.00
2023-02-03T10:54:11.191Z,15336.00
2023-02-03T10:59:18.485Z,18792.00
2023-02-03T11:04:25.619Z,19296.00
2023-02-03T11:09:33.863Z,18792.00
2023-02-03T11:14:41.368Z,17208.00
2023-02-03T11:19:48.612Z,15948.00
2023-02-03T11:24:55.783Z,15984.00
2023-02-03T11:30:03.087Z,16560.00
2023-02-03T11:35:10.292Z,16740.00
2023-02-03T11:40:17.588Z,15912.00
2023-02-03T11:45:24.726Z,15804.00
2023-02-03T11:50:31.880Z,15480.00
2023-02-03T11:55:39.059Z,14508.00
2023-02-03T12:00:46.340Z,14904.00
2023-02-03T12:05:53.543Z,15012.00
2023-02-03T12:11:00.820Z,15264.00
2023-02-03T12:16:08.122Z,14940.00
2023-02-03T12:21:15.191Z,14508.00
2023-02-03T12:26:22.375Z,15408.00
2023-02-03T12:31:29.705Z,15984.00
2023-02-03T12:36:36.742Z,15552.00
2023-02-03T12:41:43.935Z,15660.00
2023-02-03T12:46:51.141Z,15012.00
2023-02-03T12:51:58.313Z,15732.00
2023-02-03T12:57:06.183Z,16020.00
2023-02-03T13:02:13.343Z,15372.00
2023-02-03T13:07:20.457Z,14796.00
2023-02-03T13:12:27.683Z,14724.00
2023-02-03T13:17:34.871Z,15804.00
2023-02-03T13:22:42.046Z,16128.00
2023-02-03T13:27:49.259Z,15048.00
2023-02-03T13:32:56.432Z,14652.00
2023-02-03T13:38:03.632Z,14832.00
2023-02-03T13:43:10.902Z,14976.00
2023-02-03T13:48:18.215Z,14796.00
2023-02-03T13:53:25.454Z,14580.00
2023-02-03T13:58:32.742Z,13644.00
2023-02-03T14:03:40.147Z,13068.00
2023-02-03T14:08:47.280Z,13572.00
2023-02-03T14:13:54.635Z,13752.00
2023-02-03T14:19:01.902Z,13860.00
2023-02-03T14:24:09.151Z,12996.00
2023-02-03T14:29:16.341Z,11196.00
2023-02-03T14:34:23.538Z,11088.00
2023-02-03T14:39:30.783Z,11304.00
2023-02-03T14:44:37.983Z,11124.00
2023-02-03T14:49:45.206Z,10044.00
2023-02-03T14:54:52.366Z,8748.00
2023-02-03T14:59:59.578Z,8712.00
2023-02-03T15:05:06.812Z,8604.00
2023-02-03T15:10:13.905Z,7128.00
2023-02-03T15:15:21.085Z,7164.00
2023-02-03T15:20:28.305Z,6552.00
2023-02-03T15:25:35.441Z,6264.00
2023-02-03T15:30:42.633Z,6480.00
2023-02-03T15:35:49.837Z,10404.00
2023-02-03T15:40:57.005Z,9684.00
2023-02-03T15:46:04.343Z,9468.00
2023-02-03T15:51:11.486Z,8568.00
2023-02-03T15:56:18.653Z,7848.00
2023-02-03T16:01:25.877Z,7488.00
2023-02-03T16:06:33.033Z,7416.00
2023-02-03T16:11:40.256Z,288.00
2023-02-03T16:17:02.730Z,-144.00
2023-02-03T16:21:54.867Z,-576.00
2023-02-03T16:27:01.985Z,-756.00
2023-02-03T16:32:09.225Z,-864.00
2023-02-03T16:37:16.390Z,-864.00
2023-02-03T16:42:23.621Z,-1080.00
2023-02-03T16:47:30.824Z,-1008.00
2023-02-03T16:52:38.110Z,-1008.00
2023-02-03T16:57:45.285Z,-1008.00
2023-02-03T17:02:52.801Z,-1008.00
2023-02-03T17:08:00.189Z,-1008.00
2023-02-03T17:13:07.359Z,-1008.00
2023-02-03T17:18:14.936Z,-1008.00
2023-02-03T17:23:22.344Z,-1008.00
2023-02-03T17:28:29.511Z,-1008.00
2023-02-03T17:33:36.972Z,-1044.00
2023-02-03T17:53:28.668Z,-972.00
2023-02-03T17:58:36.069Z,-1008.00
2023-02-03T18:03:43.466Z,-1008.00
2023-02-03T18:08:50.763Z,-972.00
2023-02-03T18:13:58.290Z,-1008.00
2023-02-03T18:19:05.602Z,-1008.00
2023-02-03T18:24:13.146Z,-1008.00
2023-02-03T18:29:20.809Z,-1008.00
2023-02-03T18:34:28.317Z,-1008.00
2023-02-03T18:39:35.996Z,-1008.00
2023-02-03T18:44:43.277Z,-1008.00
2023-02-03T18:49:50.771Z,-1008.00
2023-02-03T18:54:58.421Z,-1008.00
2023-02-03T19:00:06.004Z,-1008.00
2023-02-03T19:05:13.541Z,-1008.00
2023-02-03T19:10:22.175Z,-1008.00
2023-02-03T19:15:29.630Z,-1008.00
2023-02-03T19:20:37.190Z,-1008.00
2023-02-03T19:25:44.827Z,-1008.00
2023-02-03T19:30:57.513Z,-1008.00
2023-02-03T19:36:00.134Z,-1008.00
2023-02-03T19:41:07.872Z,-1008.00
2023-02-03T19:46:16.757Z,-1008.00
2023-02-03T19:51:24.427Z,-1008.00
2023-02-03T19:56:32.063Z,-1008.00
2023-02-03T20:01:39.748Z,-1008.00
2023-02-03T20:06:46.979Z,-1008.00
2023-02-03T20:11:54.482Z,-1008.00
2023-02-03T20:17:02.075Z,-1008.00
2023-02-03T20:22:09.689Z,-1008.00
2023-02-03T20:27:17.426Z,-1008.00
2023-02-03T20:32:25.023Z,-1008.00
2023-02-03T20:37:32.813Z,-1008.00
2023-02-03T20:42:40.683Z,-1008.00
2023-02-03T20:47:48.009Z,-1008.00
2023-02-03T20:52:55.489Z,396.00
2023-02-03T20:58:02.836Z,6192.00
2023-02-03T21:03:10.306Z,6264.00
2023-02-03T21:08:17.699Z,6264.00
2023-02-03T21:13:25.159Z,6156.00
2023-02-03T21:18:32.741Z,6192.00
2023-02-03T21:23:40.562Z,6192.00
2023-02-03T21:28:48.097Z,6192.00
2023-02-03T21:33:55.404Z,6192.00
2023-02-03T21:39:02.888Z,6156.00
2023-02-03T21:44:10.429Z,6228.00
2023-02-03T21:49:18.020Z,6120.00
2023-02-03T21:54:25.349Z,5904.00
2023-02-03T21:59:32.588Z,5760.00
2023-02-03T22:04:39.809Z,5616.00
2023-02-03T22:09:46.978Z,5652.00
2023-02-03T22:14:54.373Z,5976.00
2023-02-03T22:20:01.665Z,5868.00
2023-02-03T22:25:08.869Z,6084.00
2023-02-03T22:30:16.043Z,6012.00
2023-02-03T22:35:23.243Z,6048.00
2023-02-03T22:40:30.980Z,5904.00
2023-02-03T22:45:37.725Z,5508.00
2023-02-03T22:50:45.088Z,5976.00
2023-02-03T22:55:52.352Z,6048.00
2023-02-03T23:00:59.567Z,5832.00
2023-02-03T23:06:06.819Z,5832.00
2023-02-03T23:11:14.017Z,6120.00
2023-02-03T23:16:21.231Z,6372.00
2023-02-03T23:21:28.383Z,6228.00
2023-02-03T23:26:35.593Z,6192.00
2023-02-03T23:31:43.037Z,5904.00
2023-02-03T23:36:50.085Z,6012.00
2023-02-03T23:41:57.337Z,0.00
2023-02-03T23:47:04.538Z,-1044.00
2023-02-03T23:52:11.760Z,-1116.00
2023-02-03T23:57:19.061Z,-1152.00
